createdAt,value
2022-12-15T00:00:05.501Z,29.27
2022-12-15T00:02:51.183Z,30.90
2022-12-15T00:05:36.685Z,32.10
2022-12-15T00:08:26.380Z,28.00
2022-12-15T00:11:12.256Z,28.77
2022-12-15T00:13:57.951Z,29.10
2022-12-15T00:16:44.976Z,24.70
2022-12-15T00:19:30.226Z,28.57
2022-12-15T00:22:15.811Z,29.20
2022-12-15T00:25:01.051Z,31.10
2022-12-15T00:27:46.303Z,28.63
2022-12-15T00:30:34.301Z,26.10
2022-12-15T00:33:26.380Z,28.43
2022-12-15T00:36:12.838Z,27.23
2022-12-15T00:38:44.412Z,27.13
2022-12-15T00:41:13.501Z,29.10
2022-12-15T00:43:41.555Z,26.33
2022-12-15T00:46:27.898Z,27.20
2022-12-15T00:48:57.425Z,29.67
2022-12-15T00:51:43.376Z,30.40
2022-12-15T00:54:29.871Z,28.60
2022-12-15T00:57:15.528Z,30.63
2022-12-15T01:00:00.946Z,28.70
2022-12-15T01:02:46.515Z,30.53
2022-12-15T01:05:33.885Z,30.47
2022-12-15T01:08:19.500Z,27.93
2022-12-15T01:11:04.744Z,31.17
2022-12-15T01:13:50.618Z,32.37
2022-12-15T01:16:36.483Z,28.93
2022-12-15T01:19:22.150Z,31.07
2022-12-15T01:21:51.665Z,30.37
2022-12-15T01:24:19.736Z,30.97
2022-12-15T01:26:47.822Z,31.00
2022-12-15T01:29:15.923Z,33.57
2022-12-15T01:31:44.154Z,33.50
2022-12-15T01:34:12.359Z,27.70
2022-12-15T01:36:40.464Z,29.17
2022-12-15T01:39:10.602Z,33.20
2022-12-15T01:41:37.676Z,28.00
2022-12-15T01:44:18.197Z,28.30
2022-12-15T01:46:47.207Z,31.20
2022-12-15T01:49:17.763Z,30.97
2022-12-15T01:51:49.437Z,29.57
2022-12-15T01:54:24.455Z,29.67
2022-12-15T01:56:56.207Z,31.33
2022-12-15T01:59:28.139Z,32.40
2022-12-15T02:01:56.321Z,30.00
2022-12-15T02:04:25.447Z,28.17
2022-12-15T02:06:53.738Z,28.13
2022-12-15T02:09:25.587Z,28.40
2022-12-15T02:12:01.976Z,36.20
2022-12-15T02:14:48.198Z,30.80
2022-12-15T02:17:29.372Z,29.80
2022-12-15T02:20:36.054Z,26.90
2022-12-15T02:23:51.399Z,29.70
2022-12-15T02:26:39.417Z,31.10
2022-12-15T02:29:23.073Z,26.47
2022-12-15T02:31:58.802Z,29.93
2022-12-15T02:34:34.363Z,30.33
2022-12-15T02:37:07.278Z,32.10
2022-12-15T02:39:35.320Z,28.07
2022-12-15T02:42:03.395Z,28.47
2022-12-15T02:44:35.802Z,31.03
2022-12-15T02:47:28.813Z,26.10
2022-12-15T02:50:19.718Z,33.83
2022-12-15T02:52:59.291Z,27.83
2022-12-15T02:55:37.172Z,26.37
2022-12-15T02:58:13.492Z,29.30
2022-12-15T03:00:47.322Z,27.73
2022-12-15T03:03:20.775Z,28.43
2022-12-15T03:05:53.194Z,26.60
2022-12-15T03:08:21.747Z,25.37
2022-12-15T03:10:52.209Z,24.40
2022-12-15T03:13:23.961Z,25.57
2022-12-15T03:15:52.657Z,30.70
2022-12-15T03:18:22.562Z,28.10
2022-12-15T03:20:51.563Z,27.83
2022-12-15T03:23:19.621Z,27.33
2022-12-15T03:25:49.747Z,28.00
2022-12-15T03:28:18.454Z,27.67
2022-12-15T03:30:50.426Z,26.03
2022-12-15T03:33:19.301Z,27.77
2022-12-15T03:35:49.785Z,25.33
2022-12-15T03:38:18.208Z,29.10
2022-12-15T03:40:46.384Z,27.30
2022-12-15T03:43:14.442Z,27.20
2022-12-15T03:45:42.551Z,30.80
2022-12-15T03:48:10.609Z,31.67
2022-12-15T03:50:38.730Z,26.20
2022-12-15T03:53:08.290Z,28.17
2022-12-15T03:55:36.436Z,24.47
2022-12-15T03:58:04.561Z,28.43
2022-12-15T04:00:32.719Z,27.00
2022-12-15T04:03:00.955Z,27.13
2022-12-15T04:05:31.076Z,27.43
2022-12-15T04:08:00.698Z,30.70
2022-12-15T04:10:34.599Z,30.00
2022-12-15T04:13:05.342Z,33.23
2022-12-15T04:15:34.191Z,30.30
2022-12-15T04:18:03.215Z,30.07
2022-12-15T04:20:33.018Z,27.63
2022-12-15T04:23:01.644Z,25.83
2022-12-15T04:25:48.497Z,29.73
2022-12-15T04:28:34.164Z,24.90
2022-12-15T04:31:25.074Z,30.63
2022-12-15T04:34:13.827Z,27.03
2022-12-15T04:37:02.467Z,27.40
2022-12-15T04:39:48.146Z,28.03
2022-12-15T04:42:35.064Z,28.60
2022-12-15T04:45:22.952Z,25.70
2022-12-15T04:48:08.408Z,25.83
2022-12-15T04:50:54.195Z,29.73
2022-12-15T04:53:40.106Z,30.30
2022-12-15T04:56:29.224Z,28.00
2022-12-15T04:59:16.493Z,30.67
2022-12-15T05:02:02.876Z,27.83
2022-12-15T05:04:48.486Z,28.73
2022-12-15T05:07:34.397Z,26.00
2022-12-15T05:10:20.161Z,31.77
2022-12-15T05:13:05.656Z,29.03
2022-12-15T05:15:52.700Z,28.73
2022-12-15T05:18:38.775Z,29.23
2022-12-15T05:21:25.395Z,26.63
2022-12-15T05:24:11.240Z,29.90
2022-12-15T05:26:56.983Z,29.90
2022-12-15T05:29:42.271Z,29.53
2022-12-15T05:32:13.302Z,28.80
2022-12-15T05:34:41.586Z,29.13
2022-12-15T05:37:09.767Z,30.03
2022-12-15T05:39:37.841Z,31.03
2022-12-15T05:42:06.101Z,29.60
2022-12-15T05:44:34.260Z,31.20
2022-12-15T05:47:02.308Z,28.50
2022-12-15T05:49:31.793Z,26.50
2022-12-15T05:52:00.084Z,29.50
2022-12-15T05:54:28.402Z,30.53
2022-12-15T05:56:56.489Z,27.37
2022-12-15T05:59:24.619Z,30.10
2022-12-15T06:01:52.790Z,33.40
2022-12-15T06:04:21.006Z,28.77
2022-12-15T06:06:50.442Z,29.80
2022-12-15T06:09:18.574Z,30.73
2022-12-15T06:11:46.815Z,29.73
2022-12-15T06:14:15.004Z,29.03
2022-12-15T06:16:50.089Z,33.87
2022-12-15T06:19:20.731Z,30.43
2022-12-15T06:21:50.191Z,27.43
2022-12-15T06:24:18.272Z,31.17
2022-12-15T06:26:46.601Z,31.00
2022-12-15T06:29:18.280Z,29.03
2022-12-15T06:31:46.398Z,28.73
2022-12-15T06:34:17.052Z,27.07
2022-12-15T06:36:45.385Z,31.83
2022-12-15T06:39:16.667Z,29.00
2022-12-15T06:41:45.289Z,31.63
2022-12-15T06:44:15.419Z,29.47
2022-12-15T06:46:45.818Z,28.20
2022-12-15T06:49:14.971Z,32.70
2022-12-15T06:51:44.068Z,30.57
2022-12-15T06:54:12.506Z,29.60
2022-12-15T06:56:42.324Z,27.70
2022-12-15T06:59:12.539Z,28.30
2022-12-15T07:01:41.665Z,36.53
2022-12-15T07:04:11.257Z,28.30
2022-12-15T07:06:40.101Z,27.83
2022-12-15T07:09:13.524Z,30.33
2022-12-15T07:11:43.032Z,28.77
2022-12-15T07:14:11.795Z,30.43
2022-12-15T07:16:41.070Z,28.63
2022-12-15T07:19:12.745Z,27.70
2022-12-15T07:21:41.076Z,28.03
2022-12-15T07:24:11.852Z,26.67
2022-12-15T07:26:40.282Z,32.57
2022-12-15T07:29:11.755Z,31.47
2022-12-15T07:31:39.941Z,28.00
2022-12-15T07:34:08.036Z,30.20
2022-12-15T07:36:36.104Z,29.00
2022-12-15T07:39:05.395Z,26.43
2022-12-15T07:41:33.572Z,32.10
2022-12-15T07:44:02.346Z,26.83
2022-12-15T07:46:31.800Z,29.47
2022-12-15T07:48:59.960Z,29.57
2022-12-15T07:51:28.151Z,28.13
2022-12-15T07:53:56.205Z,32.60
2022-12-15T07:56:24.484Z,28.20
2022-12-15T07:58:53.013Z,29.00
2022-12-15T08:01:21.284Z,31.50
2022-12-15T08:03:51.148Z,31.87
2022-12-15T08:06:19.356Z,29.80
2022-12-15T08:08:50.549Z,26.57
2022-12-15T08:11:24.617Z,29.90
2022-12-15T08:14:14.937Z,27.30
2022-12-15T08:16:41.359Z,31.10
2022-12-15T08:19:13.171Z,24.93
2022-12-15T08:21:42.037Z,27.43
2022-12-15T08:24:10.775Z,29.80
2022-12-15T08:26:39.486Z,28.50
2022-12-15T08:29:48.836Z,30.10
2022-12-15T08:31:59.378Z,30.93
2022-12-15T08:34:29.265Z,27.33
2022-12-15T08:36:57.386Z,28.83
2022-12-15T08:39:25.434Z,26.13
2022-12-15T08:41:53.515Z,31.47
2022-12-15T08:44:21.778Z,27.37
2022-12-15T08:46:51.194Z,25.70
2022-12-15T08:49:22.129Z,26.70
2022-12-15T08:51:52.470Z,28.83
2022-12-15T08:54:21.553Z,25.00
2022-12-15T08:56:49.722Z,27.33
2022-12-15T08:59:19.062Z,25.43
2022-12-15T09:01:47.347Z,24.70
2022-12-15T09:04:15.845Z,25.73
2022-12-15T09:06:44.134Z,29.93
2022-12-15T09:09:18.042Z,26.17
2022-12-15T09:11:46.139Z,28.80
2022-12-15T09:14:14.791Z,25.20
2022-12-15T09:16:42.886Z,26.70
2022-12-15T09:19:11.140Z,25.67
2022-12-15T09:21:39.789Z,26.57
2022-12-15T09:24:08.213Z,25.53
2022-12-15T09:26:37.632Z,25.77
2022-12-15T09:29:05.739Z,23.83
2022-12-15T09:31:38.230Z,23.77
2022-12-15T09:34:06.353Z,26.33
2022-12-15T09:36:34.456Z,24.30
2022-12-15T09:39:03.598Z,23.40
2022-12-15T09:41:33.543Z,23.37
2022-12-15T09:44:07.433Z,23.17
2022-12-15T09:46:49.795Z,24.07
2022-12-15T09:49:35.794Z,24.67
2022-12-15T09:52:10.945Z,24.20
2022-12-15T09:54:41.773Z,23.47
2022-12-15T09:57:18.123Z,22.50
2022-12-15T10:00:00.388Z,23.43
2022-12-15T10:03:02.758Z,23.33
2022-12-15T10:06:06.882Z,24.37
2022-12-15T10:08:32.859Z,21.40
2022-12-15T10:11:03.160Z,21.53
2022-12-15T10:13:42.013Z,22.27
2022-12-15T10:16:21.584Z,23.30
2022-12-15T10:19:01.427Z,21.67
2022-12-15T10:21:31.924Z,21.87
2022-12-15T10:24:11.824Z,22.13
2022-12-15T10:26:42.354Z,21.20
2022-12-15T10:29:34.616Z,21.37
2022-12-15T10:32:10.542Z,21.53
2022-12-15T10:34:39.697Z,19.87
2022-12-15T10:37:14.448Z,20.23
2022-12-15T10:39:44.930Z,19.40
2022-12-15T10:42:15.680Z,19.73
2022-12-15T10:44:50.711Z,20.40
2022-12-15T10:47:23.424Z,20.10
2022-12-15T10:49:51.524Z,19.10
2022-12-15T10:52:27.371Z,19.30
2022-12-15T10:54:56.302Z,19.03
2022-12-15T10:57:28.776Z,19.37
2022-12-15T10:59:59.404Z,19.53
2022-12-15T11:02:36.382Z,18.40
2022-12-15T11:05:16.111Z,18.00
2022-12-15T11:07:47.591Z,17.83
2022-12-15T11:10:22.307Z,15.70
2022-12-15T11:13:00.138Z,16.80
2022-12-15T11:15:51.165Z,16.63
2022-12-15T11:18:33.580Z,17.93
2022-12-15T11:21:06.400Z,18.77
2022-12-15T11:23:52.344Z,16.30
2022-12-15T11:26:40.200Z,17.50
2022-12-15T11:29:16.297Z,15.70
2022-12-15T11:31:47.158Z,15.60
2022-12-15T11:34:21.312Z,15.50
2022-12-15T11:37:07.593Z,15.33
2022-12-15T11:39:49.348Z,15.23
2022-12-15T11:42:30.712Z,14.90
2022-12-15T11:45:07.839Z,17.23
2022-12-15T11:47:43.124Z,15.60
2022-12-15T11:50:27.522Z,14.40
2022-12-15T11:53:10.835Z,15.57
2022-12-15T11:55:46.861Z,15.30
2022-12-15T11:58:30.496Z,14.37
2022-12-15T12:01:06.034Z,15.20
2022-12-15T12:03:44.015Z,15.70
2022-12-15T12:06:24.044Z,15.77
2022-12-15T12:09:04.518Z,15.87
2022-12-15T12:11:37.945Z,15.93
2022-12-15T12:14:18.978Z,17.80
2022-12-15T12:17:17.076Z,15.97
2022-12-15T12:19:51.056Z,17.57
2022-12-15T12:22:25.584Z,16.97
2022-12-15T12:24:59.557Z,17.37
2022-12-15T12:27:39.497Z,17.33
2022-12-15T12:30:17.015Z,17.23
2022-12-15T12:32:56.557Z,16.37
2022-12-15T12:35:33.363Z,17.13
2022-12-15T12:38:12.029Z,16.60
2022-12-15T12:41:05.029Z,16.80
2022-12-15T12:43:38.392Z,16.23
2022-12-15T12:46:17.700Z,19.40
2022-12-15T12:48:52.158Z,17.00
2022-12-15T12:51:32.662Z,17.00
2022-12-15T12:54:06.658Z,17.57
2022-12-15T12:56:50.350Z,18.27
2022-12-15T12:59:39.817Z,16.37
2022-12-15T13:02:51.808Z,17.20
2022-12-15T13:05:31.436Z,17.50
2022-12-15T13:08:19.159Z,17.60
2022-12-15T13:10:52.369Z,17.90
2022-12-15T13:13:51.033Z,17.87
2022-12-15T13:16:40.529Z,18.03
2022-12-15T13:20:24.403Z,17.70
2022-12-15T13:22:53.937Z,18.87
2022-12-15T13:25:51.811Z,19.00
2022-12-15T13:28:51.486Z,17.53
2022-12-15T13:31:32.487Z,18.03
2022-12-15T13:34:18.447Z,17.90
2022-12-15T13:37:11.056Z,18.10
2022-12-15T13:40:00.030Z,19.33
2022-12-15T13:42:56.136Z,17.10
2022-12-15T13:45:50.975Z,16.37
2022-12-15T13:48:43.218Z,16.50
2022-12-15T13:51:31.077Z,17.37
2022-12-15T13:54:06.027Z,17.90
2022-12-15T13:57:05.410Z,17.70
2022-12-15T13:59:46.639Z,15.60
2022-12-15T14:02:33.960Z,18.03
2022-12-15T14:05:12.525Z,17.40
2022-12-15T14:07:41.676Z,16.53
2022-12-15T14:10:20.372Z,16.83
2022-12-15T14:12:52.668Z,16.90
2022-12-15T14:15:28.194Z,17.33
2022-12-15T14:18:02.228Z,17.33
2022-12-15T14:20:34.496Z,18.60
2022-12-15T14:23:02.673Z,17.30
2022-12-15T14:25:31.559Z,17.90
2022-12-15T14:28:05.497Z,18.50
2022-12-15T14:30:38.397Z,20.83
2022-12-15T14:33:17.381Z,18.77
2022-12-15T14:35:51.891Z,19.30
2022-12-15T14:38:25.117Z,18.60
2022-12-15T14:40:59.409Z,20.90
2022-12-15T14:43:33.119Z,18.73
2022-12-15T14:46:12.113Z,18.10
2022-12-15T14:48:54.291Z,20.47
2022-12-15T14:51:32.905Z,20.60
2022-12-15T14:54:01.075Z,19.87
2022-12-15T14:56:34.028Z,19.00
2022-12-15T14:59:07.754Z,18.90
2022-12-15T15:01:41.418Z,20.30
2022-12-15T15:04:29.184Z,20.47
2022-12-15T15:07:00.925Z,21.70
2022-12-15T15:09:33.514Z,22.27
2022-12-15T15:12:09.583Z,21.60
2022-12-15T15:14:43.000Z,23.03
2022-12-15T15:17:24.903Z,24.57
2022-12-15T15:19:59.552Z,25.23
2022-12-15T15:22:40.774Z,40.80
2022-12-15T15:25:28.993Z,28.13
2022-12-15T15:28:16.180Z,27.50
2022-12-15T15:30:49.638Z,32.03
2022-12-15T15:33:21.902Z,37.53
2022-12-15T15:35:56.472Z,26.83
2022-12-15T15:38:32.356Z,26.57
2022-12-15T15:41:12.847Z,54.20
2022-12-15T15:43:46.691Z,52.83
2022-12-15T15:46:18.681Z,39.00
2022-12-15T15:48:53.652Z,31.47
2022-12-15T15:51:30.156Z,26.90
2022-12-15T15:54:04.531Z,27.87
2022-12-15T15:56:36.056Z,30.67
2022-12-15T15:59:14.624Z,54.07
2022-12-15T16:01:43.236Z,31.67
2022-12-15T16:04:12.684Z,33.80
2022-12-15T16:06:56.566Z,32.80
2022-12-15T16:09:26.402Z,36.67
2022-12-15T16:11:57.194Z,35.77
2022-12-15T16:14:25.992Z,31.77
2022-12-15T16:16:59.754Z,31.17
2022-12-15T16:19:37.920Z,35.20
2022-12-15T16:22:23.175Z,34.90
2022-12-15T16:24:51.537Z,30.43
2022-12-15T16:27:20.720Z,40.23
2022-12-15T16:29:49.957Z,34.80
2022-12-15T16:32:18.249Z,32.73
2022-12-15T16:34:49.714Z,32.03
2022-12-15T16:37:32.411Z,33.13
2022-12-15T16:40:05.580Z,30.70
2022-12-15T16:42:36.610Z,34.20
2022-12-15T16:45:18.790Z,31.90
2022-12-15T16:47:47.084Z,32.47
2022-12-15T16:50:16.806Z,30.63
2022-12-15T16:52:48.664Z,32.33
2022-12-15T16:55:22.883Z,32.97
2022-12-15T16:57:51.908Z,30.80
2022-12-15T17:00:22.205Z,31.77
2022-12-15T17:02:50.713Z,32.30
2022-12-15T17:05:19.196Z,31.70
2022-12-15T17:07:52.567Z,32.50
2022-12-15T17:10:38.533Z,31.00
2022-12-15T17:13:14.075Z,31.93
2022-12-15T17:16:00.724Z,30.93
2022-12-15T17:18:32.426Z,31.03
2022-12-15T17:21:04.781Z,35.43
2022-12-15T17:23:35.925Z,33.00
2022-12-15T17:26:27.480Z,31.93
2022-12-15T17:28:53.223Z,33.03
2022-12-15T17:31:24.014Z,32.40
2022-12-15T17:33:52.659Z,34.53
2022-12-15T17:36:23.465Z,33.90
2022-12-15T17:38:56.457Z,34.07
2022-12-15T17:41:57.516Z,33.47
2022-12-15T17:44:38.633Z,34.60
2022-12-15T17:47:09.329Z,35.23
2022-12-15T17:49:39.099Z,35.43
2022-12-15T17:52:23.504Z,33.40
2022-12-15T17:54:53.975Z,34.07
2022-12-15T17:57:22.701Z,35.27
2022-12-15T17:59:50.850Z,35.40
2022-12-15T18:02:19.222Z,32.80
2022-12-15T18:04:47.523Z,34.13
2022-12-15T18:07:19.489Z,35.03
2022-12-15T18:09:47.884Z,36.30
2022-12-15T18:12:20.175Z,33.57
2022-12-15T18:14:48.442Z,36.70
2022-12-15T18:17:16.963Z,35.90
2022-12-15T18:19:45.449Z,36.20
2022-12-15T18:22:15.451Z,37.40
2022-12-15T18:24:43.689Z,36.93
2022-12-15T18:27:23.807Z,38.47
2022-12-15T18:29:52.112Z,41.90
2022-12-15T18:32:21.660Z,38.37
2022-12-15T18:34:50.532Z,39.87
2022-12-15T18:37:19.983Z,37.70
2022-12-15T18:39:48.620Z,39.20
2022-12-15T18:42:18.720Z,38.60
2022-12-15T18:44:50.251Z,37.33
2022-12-15T18:47:19.988Z,37.30
2022-12-15T18:49:48.261Z,37.27
2022-12-15T18:52:18.985Z,37.50
2022-12-15T18:54:49.115Z,38.20
2022-12-15T18:57:27.581Z,35.40
2022-12-15T19:00:00.837Z,38.27
2022-12-15T19:02:29.321Z,37.40
2022-12-15T19:04:57.519Z,38.67
2022-12-15T19:07:25.781Z,37.33
2022-12-15T19:09:54.549Z,38.13
2022-12-15T19:12:22.780Z,38.67
2022-12-15T19:14:52.869Z,41.10
2022-12-15T19:17:42.681Z,49.97
2022-12-15T19:20:43.850Z,38.87
2022-12-15T19:23:13.644Z,38.37
2022-12-15T19:25:43.068Z,30.87
2022-12-15T19:28:17.956Z,38.70
2022-12-15T19:30:47.005Z,39.93
2022-12-15T19:33:17.884Z,39.23
2022-12-15T19:35:50.285Z,39.63
2022-12-15T19:38:25.625Z,36.80
2022-12-15T19:40:55.123Z,37.67
2022-12-15T19:43:24.168Z,38.30
2022-12-15T19:45:53.027Z,38.13
2022-12-15T19:48:24.036Z,36.53
2022-12-15T19:50:54.680Z,38.17
2022-12-15T19:53:26.148Z,39.63
2022-12-15T19:55:55.970Z,37.53
2022-12-15T19:58:28.692Z,40.93
2022-12-15T20:00:58.322Z,37.40
2022-12-15T20:03:28.993Z,38.37
2022-12-15T20:05:58.880Z,37.60
2022-12-15T20:08:29.649Z,38.20
2022-12-15T20:10:58.425Z,39.23
2022-12-15T20:13:27.082Z,35.67
2022-12-15T20:15:55.782Z,36.70
2022-12-15T20:18:24.087Z,38.17
2022-12-15T20:20:53.714Z,37.53
2022-12-15T20:23:26.157Z,39.80
2022-12-15T20:25:55.802Z,37.50
2022-12-15T20:28:27.049Z,37.70
2022-12-15T20:30:56.072Z,37.00
2022-12-15T20:33:25.146Z,36.80
2022-12-15T20:35:55.152Z,38.30
2022-12-15T20:38:31.523Z,36.97
2022-12-15T20:41:01.139Z,39.10
2022-12-15T20:43:32.539Z,31.40
2022-12-15T20:46:04.830Z,36.07
2022-12-15T20:48:34.666Z,35.57
2022-12-15T20:51:09.243Z,35.10
2022-12-15T20:53:39.044Z,36.33
2022-12-15T20:56:08.150Z,36.57
2022-12-15T20:58:39.033Z,36.83
2022-12-15T21:01:19.796Z,35.50
2022-12-15T21:03:49.022Z,38.83
2022-12-15T21:06:22.032Z,34.33
2022-12-15T21:08:50.518Z,34.03
2022-12-15T21:11:20.658Z,39.10
2022-12-15T21:13:50.341Z,38.60
2022-12-15T21:16:20.701Z,32.87
2022-12-15T21:21:43.073Z,32.93
2022-12-15T21:24:16.439Z,33.13
2022-12-15T21:26:44.802Z,34.27
2022-12-15T21:29:15.309Z,34.23
2022-12-15T21:31:43.973Z,33.47
2022-12-15T21:34:12.748Z,34.10
2022-12-15T21:36:44.154Z,34.23
2022-12-15T21:39:18.235Z,35.97
2022-12-15T21:41:46.675Z,37.03
2022-12-15T21:44:15.587Z,36.03
2022-12-15T21:46:43.945Z,36.97
2022-12-15T21:49:14.340Z,38.80
2022-12-15T21:51:46.172Z,36.33
2022-12-15T21:54:19.221Z,35.20
2022-12-15T21:56:48.563Z,40.23
2022-12-15T21:59:18.661Z,32.17
2022-12-15T22:01:47.666Z,32.70
2022-12-15T22:04:19.665Z,31.97
2022-12-15T22:06:50.595Z,32.93
2022-12-15T22:09:21.125Z,34.60
2022-12-15T22:11:53.697Z,33.20
2022-12-15T22:14:26.430Z,36.00
2022-12-15T22:16:55.486Z,35.10
2022-12-15T22:19:24.216Z,33.23
2022-12-15T22:21:54.009Z,33.73
2022-12-15T22:24:22.241Z,34.50
2022-12-15T22:26:50.522Z,34.57
2022-12-15T22:29:19.953Z,35.50
2022-12-15T22:31:48.486Z,33.97
2022-12-15T22:34:18.116Z,39.37
2022-12-15T22:36:46.988Z,34.90
2022-12-15T22:39:16.549Z,34.63
2022-12-15T22:41:47.730Z,36.97
2022-12-15T22:44:19.595Z,34.57
2022-12-15T22:46:49.251Z,38.57
2022-12-15T22:49:21.419Z,36.00
2022-12-15T22:51:49.831Z,32.97
2022-12-15T22:54:21.764Z,32.87
2022-12-15T22:56:54.923Z,35.63
2022-12-15T22:59:28.137Z,33.27
2022-12-15T23:01:56.646Z,34.00
2022-12-15T23:04:25.887Z,33.33
2022-12-15T23:06:54.005Z,34.17
2022-12-15T23:09:24.535Z,33.67
2022-12-15T23:11:51.709Z,33.17
2022-12-15T23:14:40.290Z,35.60
2022-12-15T23:17:07.667Z,32.77
2022-12-15T23:19:36.421Z,32.73
2022-12-15T23:22:04.586Z,33.43
2022-12-15T23:24:35.245Z,32.20
2022-12-15T23:27:03.392Z,35.97
2022-12-15T23:29:31.955Z,33.67
2022-12-15T23:32:00.097Z,34.70
2022-12-15T23:34:28.317Z,32.40
2022-12-15T23:36:56.499Z,33.80
2022-12-15T23:39:24.593Z,34.87
2022-12-15T23:41:54.143Z,35.10
2022-12-15T23:44:22.984Z,34.30
2022-12-15T23:46:51.283Z,33.53
2022-12-15T23:49:19.482Z,33.80
2022-12-15T23:51:48.325Z,35.40
2022-12-15T23:54:16.713Z,33.83
2022-12-15T23:56:45.026Z,33.53
2022-12-15T23:59:14.716Z,31.67
